Catàleg de serveis del Meteocat
Campanya meteocatpedra

Dades de l'estació automàtica Torres de Segre

?
?
Resum diari 22:00 TU
Dades diàries de l'estació meteorològica
Temperatura mitjana 14.1 °C
Temperatura màxima 19.7 °C 13:54 TU
Temperatura mínima 8.4 °C 3:54 TU
Humitat relativa mitjana 64%
Precipitació acumulada 0.0 mm
Ratxa màxima del vent (2 m) 43.2 km/h - 102º 19:15 TU
Irradiació solar global 6.6 MJ/m2

El tram horari està expressat en Temps Universal (TU). Cal sumar una hora en horari d'hivern i dues en horari d'estiu per passar a l'hora oficial.

Torres de Segre

Metadades estació meteorol´gica
Municipi Torres de Segre
Comarca Segrià
Altitud 215 m
Data alta 02.07.2007
Estat actual Operativa
Dades de període
Període
TU
TM
°C
TX
°C
TN
°C
HRM
%
PPT
mm
VVM (2 m)
km/h
DVM (2 m)
graus
VVX (2 m)
km/h
RS
W/m2
00:00 - 00:30 11.1 11.2 10.8 78 0.0 3.6 45 6.8 0
00:30 - 01:00 10.7 10.9 10.4 79 0.0 6.1 112 9.7 0
01:00 - 01:30 10.8 11.0 10.5 79 0.0 7.9 113 10.8 0
01:30 - 02:00 9.7 10.4 9.5 82 0.0 8.3 128 11.2 0
02:00 - 02:30 9.5 9.9 9.2 81 0.0 8.6 127 12.6 0
02:30 - 03:00 9.6 10.2 9.3 83 0.0 7.6 101 11.9 0
03:00 - 03:30 9.9 10.2 9.3 83 0.0 6.5 96 12.2 0
03:30 - 04:00 9.1 9.8 8.4 88 0.0 4.3 30 10.8 0
04:00 - 04:30 9.5 9.8 9.3 89 0.0 5.0 46 10.1 0
04:30 - 05:00 9.3 9.4 9.1 91 0.0 2.5 88 6.5 0
05:00 - 05:30 9.1 9.2 8.9 91 0.0 4.0 174 7.9 2
05:30 - 06:00 8.9 9.1 8.6 92 0.0 3.6 162 10.1 27
06:00 - 06:30 8.9 9.0 8.6 93 0.0 2.2 337 4.7 60
06:30 - 07:00 9.3 10.0 9.0 90 0.0 3.6 163 7.2 138
07:00 - 07:30 10.9 11.3 10.1 84 0.0 3.2 9 8.6 214
07:30 - 08:00 11.4 11.6 11.1 84 0.0 2.5 335 7.6 111
08:00 - 08:30 11.4 12.0 11.1 85 0.0 8.3 37 16.2 43
08:30 - 09:00 12.4 13.2 12.0 77 0.0 8.3 46 14.4 122
09:00 - 09:30 13.4 13.8 13.2 71 0.0 10.8 53 22.0 100
09:30 - 10:00 14.3 14.6 13.8 58 0.0 14.4 57 28.8 111
10:00 - 10:30 14.8 15.2 14.6 49 0.0 18.4 66 32.4 145
10:30 - 11:00 15.4 15.7 15.1 52 0.0 17.6 64 30.2 243
11:00 - 11:30 16.0 16.3 15.7 53 0.0 17.6 67 29.9 253
11:30 - 12:00 16.4 16.5 16.3 52 0.0 18.7 61 31.3 232
12:00 - 12:30 16.8 17.1 16.4 50 0.0 17.6 55 33.1 231
12:30 - 13:00 17.4 17.7 17.1 48 0.0 14.4 57 27.0 223
13:00 - 13:30 18.0 18.5 17.7 46 0.0 12.6 62 25.9 241
13:30 - 14:00 19.3 19.7 18.6 39 0.0 16.9 84 29.5 262
14:00 - 14:30 19.3 19.4 19.1 39 0.0 19.8 101 33.8 168
14:30 - 15:00 19.2 19.4 19.1 41 0.0 24.8 111 41.4 180
15:00 - 15:30 19.0 19.1 18.9 44 0.0 21.2 109 35.3 146
15:30 - 16:00 18.7 18.9 18.6 45 0.0 13.3 75 28.4 111
16:00 - 16:30 18.4 18.7 18.3 49 0.0 11.9 82 24.5 115
16:30 - 17:00 18.1 18.3 17.8 52 0.0 14.0 83 27.4 114
17:00 - 17:30 17.8 17.9 17.6 51 0.0 14.8 90 27.0 64
17:30 - 18:00 17.4 17.6 17.3 53 0.0 15.8 97 28.1 38
18:00 - 18:30 17.2 17.3 16.9 53 0.0 16.2 103 28.4 17
18:30 - 19:00 16.7 17.0 16.4 54 0.0 13.0 92 24.8 0
19:00 - 19:30 16.6 16.9 16.4 55 0.0 17.6 93 43.2 0
19:30 - 20:00 16.4 16.5 16.3 55 0.0 13.7 79 35.6 0
20:00 - 20:30 16.2 16.3 16.1 53 0.0 15.1 73 28.1 0
20:30 - 21:00 16.1 16.2 16.0 50 0.0 15.5 75 33.8 0
21:00 - 21:30 15.8 16.2 15.6 48 0.0 11.2 56 22.7 0
21:30 - 22:00 15.6 15.8 15.2 49 0.0 7.6 54 16.2 0
22:00 - 22:30 14.7 15.2 14.0 55 0.0 3.6 7 11.2 0

Les dades en taronja només han passat un control de qualitat automàtic. Resta pendent la seva validació definitiva.